Time;durP1;ratioP1;P1;durP2;ratioP2;P2;SDS_P1;SDS_P2;PMS_P1;PMS_P2;Temp;Humidity;BMP_temperature;BMP_pressure;BME280_temperature;BME280_humidity;BME280_pressure;Samples;Min_cycle;Max_cycle;Signal;HPM_P1;HPM_P2
2023/05/17 00:00:31;;;;;;;35.87;18.33;;;8.80;82.70;;;;;;4997359;28;20201;-89
2023/05/17 00:02:56;;;;;;;37.53;19.00;;;8.80;82.60;;;;;;4997722;28;20169;-89
2023/05/17 00:05:22;;;;;;;33.13;18.27;;;8.80;82.60;;;;;;4996363;28;20678;-88
2023/05/17 00:07:48;;;;;;;35.50;16.93;;;8.80;83.00;;;;;;4997073;28;20283;-88
2023/05/17 00:10:14;;;;;;;32.13;17.20;;;8.70;83.00;;;;;;4997047;28;20268;-88
2023/05/17 00:12:39;;;;;;;27.17;16.57;;;8.70;83.00;;;;;;4997241;28;20332;-89
2023/05/17 00:15:05;;;;;;;28.77;16.83;;;8.70;83.10;;;;;;4996838;28;20181;-88
2023/05/17 00:17:31;;;;;;;27.10;16.47;;;8.60;83.40;;;;;;4997834;28;20181;-88
2023/05/17 00:19:56;;;;;;;29.97;16.23;;;8.50;83.80;;;;;;5014342;28;20766;-89
2023/05/17 00:22:22;;;;;;;37.90;17.13;;;8.60;84.00;;;;;;4996750;28;20193;-88
2023/05/17 00:24:47;;;;;;;27.60;16.10;;;8.50;84.20;;;;;;4996878;28;20186;-88
2023/05/17 00:27:21;;;;;;;36.07;16.77;;;8.50;84.20;;;;;;5132461;27;20533;-88
2023/05/17 00:29:47;;;;;;;27.40;14.60;;;8.50;84.10;;;;;;5130424;28;20712;-88
2023/05/17 00:32:12;;;;;;;30.20;15.23;;;8.60;84.30;;;;;;5130207;28;20185;-88
2023/05/17 00:34:38;;;;;;;30.43;15.60;;;8.50;84.70;;;;;;5131592;27;20223;-88
2023/05/17 00:37:03;;;;;;;33.67;16.20;;;8.50;85.00;;;;;;5130344;28;20218;-89
2023/05/17 00:39:29;;;;;;;42.50;16.87;;;8.60;85.10;;;;;;5130529;28;20223;-88
2023/05/17 00:41:54;;;;;;;27.67;15.43;;;8.60;84.80;;;;;;5130528;28;20222;-90
2023/05/17 00:44:20;;;;;;;36.67;16.37;;;8.70;84.50;;;;;;5131581;27;20169;-89
2023/05/17 00:46:45;;;;;;;36.67;16.30;;;8.70;84.50;;;;;;5130060;28;20205;-88
2023/05/17 00:49:11;;;;;;;34.50;17.17;;;8.70;84.30;;;;;;5130221;28;20177;-89
2023/05/17 00:51:38;;;;;;;28.90;14.27;;;8.70;84.10;;;;;;5130240;28;20193;-89
2023/05/17 00:54:04;;;;;;;34.63;14.80;;;8.70;84.30;;;;;;5131471;27;20177;-89
2023/05/17 00:56:30;;;;;;;17.30;7.20;;;8.70;84.30;;;;;;5130002;28;20227;-89
2023/05/17 00:58:56;;;;;;;18.47;7.50;;;8.70;84.50;;;;;;5130029;27;20173;-88
2023/05/17 01:01:21;;;;;;;20.63;7.50;;;8.80;84.10;;;;;;5129683;27;20220;-88
2023/05/17 01:03:48;;;;;;;23.13;8.53;;;8.80;83.20;;;;;;5129718;27;20174;-88
2023/05/17 01:06:13;;;;;;;22.37;7.47;;;8.70;82.60;;;;;;5130841;27;20197;-88
2023/05/17 01:08:39;;;;;;;18.60;9.17;;;8.70;82.40;;;;;;5129832;28;20180;-87
2023/05/17 01:11:13;;;;;;;18.90;8.63;;;8.70;81.90;;;;;;5129871;27;20189;-88
2023/05/17 01:14:25;;;;;;;16.10;7.70;;;8.60;81.60;;;;;;5129604;27;20253;-88
2023/05/17 01:17:13;;;;;;;25.63;8.43;;;8.60;81.10;;;;;;5115668;27;20250;-87
2023/05/17 01:20:10;;;;;;;19.13;8.90;;;8.50;81.10;;;;;;5129618;27;20161;-87
2023/05/17 01:23:01;;;;;;;17.70;8.00;;;8.50;80.30;;;;;;5130601;27;20197;-87
2023/05/17 01:25:41;;;;;;;17.10;8.43;;;8.50;80.10;;;;;;5129531;28;20242;-87
2023/05/17 01:28:08;;;;;;;20.63;8.67;;;8.40;79.90;;;;;;5130567;27;20646;-87
2023/05/17 01:30:35;;;;;;;21.23;8.47;;;8.30;79.60;;;;;;5130326;27;20633;-87
2023/05/17 01:33:02;;;;;;;20.03;8.27;;;8.30;79.30;;;;;;5129193;27;20169;-87
2023/05/17 01:35:27;;;;;;;16.87;9.03;;;8.30;78.90;;;;;;5129143;27;20182;-87
2023/05/17 01:37:53;;;;;;;16.10;8.40;;;8.20;79.10;;;;;;5119975;27;20235;-87
2023/05/17 01:40:20;;;;;;;27.13;17.57;;;8.30;79.00;;;;;;5116617;28;20589;-88
2023/05/17 01:42:51;;;;;;;21.43;19.17;;;8.30;78.70;;;;;;5116705;28;20166;-87
2023/05/17 01:45:23;;;;;;;23.47;19.03;;;8.30;78.70;;;;;;5116560;28;20277;-87
2023/05/17 01:48:02;;;;;;;24.97;18.90;;;8.30;79.00;;;;;;5116413;28;20190;-88
2023/05/17 01:50:30;;;;;;;26.17;19.87;;;8.30;79.10;;;;;;5115358;28;20176;-88
2023/05/17 01:53:04;;;;;;;26.57;18.80;;;8.30;78.60;;;;;;5115138;28;20169;-87
2023/05/17 01:55:49;;;;;;;26.73;18.63;;;8.40;78.20;;;;;;5116382;28;20172;-87
2023/05/17 01:58:17;;;;;;;27.97;19.93;;;8.40;78.50;;;;;;5116260;28;20261;-87
2023/05/17 02:00:45;;;;;;;28.13;18.97;;;8.40;79.00;;;;;;5116159;28;20220;-87
2023/05/17 02:03:21;;;;;;;28.87;19.90;;;8.40;79.30;;;;;;5115010;28;20261;-87
2023/05/17 02:05:46;;;;;;;34.60;19.27;;;8.30;79.30;;;;;;5114825;28;20186;-87
2023/05/17 02:08:12;;;;;;;35.30;19.40;;;8.30;79.90;;;;;;5114835;28;20201;-87
2023/05/17 02:10:38;;;;;;;19.37;17.27;;;8.30;79.90;;;;;;5116250;28;20235;-87
2023/05/17 02:13:03;;;;;;;27.83;19.17;;;8.20;79.70;;;;;;5115919;28;20178;-87
2023/05/17 02:15:29;;;;;;;31.57;20.27;;;8.30;78.90;;;;;;5114650;28;20178;-87
2023/05/17 02:17:55;;;;;;;27.10;19.50;;;8.30;78.80;;;;;;5116165;28;20186;-87
2023/05/17 02:20:21;;;;;;;23.00;19.17;;;8.20;78.60;;;;;;5114499;28;20583;-87
2023/05/17 02:22:46;;;;;;;28.20;19.60;;;8.10;78.10;;;;;;5114873;28;20543;-87
2023/05/17 02:25:12;;;;;;;23.40;20.17;;;8.00;77.90;;;;;;5114306;28;20549;-87
2023/05/17 02:27:37;;;;;;;26.67;20.43;;;8.00;77.90;;;;;;5114457;28;20173;-87
2023/05/17 02:30:03;;;;;;;22.83;19.87;;;8.00;77.80;;;;;;5114313;28;20170;-87
2023/05/17 02:32:30;;;;;;;25.03;18.50;;;8.00;77.60;;;;;;5114289;28;20232;-87
2023/05/17 02:34:55;;;;;;;23.77;19.43;;;7.80;77.90;;;;;;5114318;28;20177;-87
2023/05/17 02:37:21;;;;;;;26.47;18.70;;;7.80;77.80;;;;;;5114358;28;20174;-87
2023/05/17 02:39:46;;;;;;;26.27;20.00;;;7.80;78.00;;;;;;5115077;28;20531;-87
2023/05/17 02:42:13;;;;;;;26.60;20.07;;;7.80;77.60;;;;;;5113981;28;20686;-87
2023/05/17 02:44:38;;;;;;;31.57;19.63;;;7.80;77.60;;;;;;5114083;28;20174;-87
2023/05/17 02:47:04;;;;;;;27.87;19.20;;;7.80;77.50;;;;;;5114021;28;20668;-87
2023/05/17 02:49:30;;;;;;;24.00;18.43;;;7.80;77.40;;;;;;5112971;28;20284;-87
2023/05/17 02:51:55;;;;;;;20.90;18.83;;;7.90;77.60;;;;;;5113916;28;20274;-87
2023/05/17 02:54:21;;;;;;;26.60;18.77;;;7.80;77.80;;;;;;5113980;28;20648;-87
2023/05/17 02:56:46;;;;;;;24.13;19.00;;;7.80;78.30;;;;;;5115166;28;20178;-87
2023/05/17 02:59:12;;;;;;;19.10;9.07;;;7.80;78.10;;;;;;5115219;28;20181;-87
2023/05/17 03:01:37;;;;;;;20.90;8.67;;;7.80;77.90;;;;;;5113698;28;20205;-87
2023/05/17 03:04:03;;;;;;;16.63;7.70;;;7.80;77.90;;;;;;5113678;28;20181;-87
2023/05/17 03:06:28;;;;;;;20.87;7.93;;;7.80;78.60;;;;;;5113516;28;20212;-87
2023/05/17 03:08:54;;;;;;;21.60;7.93;;;7.80;78.90;;;;;;5114882;28;20525;-87
2023/05/17 03:11:19;;;;;;;21.87;7.90;;;7.90;78.50;;;;;;5115033;28;20555;-87
2023/05/17 03:13:50;;;;;;;19.43;7.80;;;7.90;78.30;;;;;;5113577;28;20184;-87
2023/05/17 03:16:15;;;;;;;22.10;8.20;;;8.00;78.10;;;;;;5113780;28;20524;-87
2023/05/17 03:18:41;;;;;;;22.37;8.23;;;8.00;77.90;;;;;;5114635;28;20185;-87
2023/05/17 03:21:06;;;;;;;22.60;8.63;;;8.10;77.90;;;;;;5113210;28;20202;-87
2023/05/17 03:23:32;;;;;;;26.03;8.67;;;8.10;78.20;;;;;;5113358;28;20215;-87
2023/05/17 03:25:57;;;;;;;22.93;9.53;;;8.10;78.10;;;;;;5112992;28;20228;-87
2023/05/17 03:28:23;;;;;;;20.27;8.77;;;8.10;77.40;;;;;;5114536;28;20170;-87
2023/05/17 03:30:48;;;;;;;23.53;8.67;;;8.00;77.10;;;;;;5113110;28;20281;-87
2023/05/17 03:33:14;;;;;;;26.20;10.00;;;8.00;76.70;;;;;;5113198;28;20547;-87
2023/05/17 03:35:39;;;;;;;25.30;9.10;;;8.00;76.70;;;;;;5113180;28;20181;-87
2023/05/17 03:38:05;;;;;;;19.67;9.77;;;7.90;76.90;;;;;;5113134;28;20170;-87
2023/05/17 03:40:30;;;;;;;29.27;19.60;;;7.90;76.80;;;;;;5113091;28;20221;-87
2023/05/17 03:42:56;;;;;;;26.43;18.13;;;7.90;76.90;;;;;;5114708;28;20170;-87
2023/05/17 03:45:22;;;;;;;28.50;17.13;;;7.90;76.70;;;;;;5112953;28;20193;-87
2023/05/17 03:47:47;;;;;;;28.37;17.93;;;7.90;76.40;;;;;;5112985;28;20174;-87
2023/05/17 03:50:13;;;;;;;29.60;17.37;;;8.00;76.40;;;;;;5113661;28;20166;-87
2023/05/17 03:52:40;;;;;;;24.87;16.77;;;8.00;76.20;;;;;;5114033;28;20563;-87
2023/05/17 03:55:06;;;;;;;29.27;17.37;;;7.90;76.40;;;;;;5112777;28;20651;-87
2023/05/17 03:57:32;;;;;;;31.13;17.17;;;7.90;76.70;;;;;;5114025;28;20166;-87
2023/05/17 03:59:58;;;;;;;26.10;16.53;;;7.90;76.60;;;;;;5112433;28;20541;-87
2023/05/17 04:02:23;;;;;;;37.93;17.10;;;7.80;76.70;;;;;;5112691;28;20291;-87
2023/05/17 04:04:49;;;;;;;33.17;18.27;;;7.80;77.10;;;;;;5112622;28;20260;-87
2023/05/17 04:07:16;;;;;;;26.10;16.70;;;7.90;77.30;;;;;;5113752;28;20251;-87
2023/05/17 04:09:41;;;;;;;29.20;16.73;;;8.00;77.10;;;;;;5112606;28;20261;-87
2023/05/17 04:12:09;;;;;;;27.17;17.10;;;8.00;76.70;;;;;;5112449;28;20276;-87
2023/05/17 04:14:35;;;;;;;39.70;17.67;;;7.90;76.60;;;;;;5113826;28;20652;-87
2023/05/17 04:17:01;;;;;;;36.70;17.03;;;7.90;76.90;;;;;;5112470;28;20593;-87
2023/05/17 04:19:26;;;;;;;27.83;17.47;;;7.80;76.80;;;;;;5112568;28;20178;-87
2023/05/17 04:21:52;;;;;;;28.40;17.90;;;7.70;77.20;;;;;;5112302;28;20202;-87
2023/05/17 04:24:17;;;;;;;41.70;17.63;;;7.70;77.20;;;;;;5112453;28;20181;-87
2023/05/17 04:26:43;;;;;;;30.03;18.43;;;7.80;77.00;;;;;;5113399;28;20706;-87
2023/05/17 04:29:09;;;;;;;25.13;16.37;;;7.80;77.00;;;;;;5112326;28;20185;-87
2023/05/17 04:31:34;;;;;;;28.73;15.97;;;7.70;77.00;;;;;;5113441;28;20186;-88
2023/05/17 04:34:00;;;;;;;25.83;15.53;;;7.80;77.30;;;;;;5113864;28;20172;-86
2023/05/17 04:36:25;;;;;;;23.43;15.30;;;7.80;77.00;;;;;;5113695;28;20184;-87
2023/05/17 04:38:51;;;;;;;23.43;15.50;;;7.80;76.30;;;;;;5113601;28;20299;-87
2023/05/17 04:41:16;;;;;;;28.00;15.90;;;7.90;76.30;;;;;;5112317;28;20205;-87
2023/05/17 04:43:42;;;;;;;22.00;15.60;;;7.90;76.30;;;;;;5113526;28;20683;-87
2023/05/17 04:46:08;;;;;;;28.67;16.83;;;7.90;75.10;;;;;;5112178;28;20692;-87
2023/05/17 04:48:34;;;;;;;30.70;16.60;;;8.00;74.90;;;;;;5112241;28;20170;-87
2023/05/17 04:51:02;;;;;;;30.70;17.37;;;8.10;74.50;;;;;;5112090;28;20601;-87
2023/05/17 04:53:29;;;;;;;40.10;17.03;;;8.10;74.10;;;;;;5113413;28;20222;-87
2023/05/17 04:55:55;;;;;;;23.43;15.37;;;8.10;74.40;;;;;;5112183;28;20701;-88
2023/05/17 04:58:23;;;;;;;23.90;17.63;;;8.10;74.70;;;;;;5112119;28;20170;-87
2023/05/17 05:00:48;;;;;;;29.77;18.60;;;8.00;73.40;;;;;;5112053;28;20228;-87
2023/05/17 05:03:14;;;;;;;27.17;18.80;;;8.10;72.50;;;;;;5113293;28;20171;-87
2023/05/17 05:05:40;;;;;;;25.00;16.60;;;8.10;70.60;;;;;;5112523;28;20198;-87
2023/05/17 05:08:05;;;;;;;24.83;9.73;;;8.20;71.30;;;;;;5113386;28;20166;-87
2023/05/17 05:10:31;;;;;;;18.37;10.93;;;8.20;71.40;;;;;;5111951;28;20178;-88
2023/05/17 05:12:57;;;;;;;18.07;10.10;;;8.20;71.60;;;;;;5114225;28;20173;-88
2023/05/17 05:15:22;;;;;;;19.43;10.33;;;8.30;70.60;;;;;;5117095;28;20240;-87
2023/05/17 05:17:48;;;;;;;18.63;10.27;;;8.30;69.80;;;;;;5115854;28;20181;-87
2023/05/17 05:20:14;;;;;;;20.50;11.13;;;8.30;70.00;;;;;;5116032;28;20169;-88
2023/05/17 05:22:40;;;;;;;18.83;10.50;;;8.40;69.60;;;;;;5116964;28;20235;-87
2023/05/17 05:25:06;;;;;;;21.13;11.03;;;8.40;69.60;;;;;;5115539;28;20178;-88
2023/05/17 05:27:31;;;;;;;24.43;10.37;;;8.50;69.10;;;;;;5115610;28;20174;-87
2023/05/17 05:29:57;;;;;;;19.07;11.00;;;8.60;69.50;;;;;;5116027;28;20283;-88
2023/05/17 05:32:22;;;;;;;20.57;9.83;;;8.40;68.60;;;;;;5116766;27;20189;-88
2023/05/17 05:34:48;;;;;;;22.90;10.50;;;8.40;69.70;;;;;;5115495;28;20178;-87
2023/05/17 05:37:14;;;;;;;22.00;10.73;;;8.40;70.10;;;;;;5116699;28;20250;-87
2023/05/17 05:39:39;;;;;;;19.80;10.73;;;8.50;70.50;;;;;;5115425;28;20200;-88
2023/05/17 05:42:05;;;;;;;24.30;9.97;;;8.40;70.80;;;;;;5116498;27;20565;-87
2023/05/17 05:44:31;;;;;;;15.53;8.90;;;8.40;70.80;;;;;;5116824;28;20227;-88
2023/05/17 05:46:56;;;;;;;15.47;8.07;;;8.50;71.10;;;;;;5116707;28;20200;-88
2023/05/17 05:49:22;;;;;;;20.90;17.90;;;8.50;72.10;;;;;;5115338;28;20181;-88
2023/05/17 05:51:47;;;;;;;24.13;18.57;;;8.40;72.10;;;;;;5115802;28;20191;-88
2023/05/17 05:54:13;;;;;;;24.83;19.03;;;8.50;72.50;;;;;;5115140;28;20269;-88
2023/05/17 05:56:38;;;;;;;21.70;17.07;;;8.60;72.30;;;;;;5116396;28;20174;-88
2023/05/17 05:59:04;;;;;;;23.83;17.03;;;8.60;72.30;;;;;;5116337;28;20170;-88
2023/05/17 06:01:30;;;;;;;19.40;16.20;;;8.60;72.50;;;;;;5115023;28;20198;-88
2023/05/17 06:03:56;;;;;;;21.93;17.63;;;8.70;72.80;;;;;;5115375;28;20589;-87
2023/05/17 06:06:21;;;;;;;26.63;17.37;;;8.70;72.40;;;;;;5116397;28;20541;-87
2023/05/17 06:08:47;;;;;;;27.57;17.70;;;8.70;72.00;;;;;;5115017;28;20190;-87
2023/05/17 06:11:13;;;;;;;26.70;16.93;;;8.70;70.50;;;;;;5115041;28;20190;-87
2023/05/17 06:13:38;;;;;;;24.17;16.60;;;8.70;70.40;;;;;;5116078;28;20170;-87
2023/05/17 06:16:05;;;;;;;19.07;16.47;;;8.70;70.10;;;;;;5116055;28;20177;-86
2023/05/17 06:18:31;;;;;;;24.40;17.77;;;8.70;69.40;;;;;;5114738;28;20174;-86
2023/05/17 06:20:56;;;;;;;26.57;18.00;;;8.60;69.20;;;;;;5116197;28;20194;-89
2023/05/17 06:23:22;;;;;;;29.97;18.73;;;8.60;69.30;;;;;;5116203;27;20666;-87
2023/05/17 06:25:48;;;;;;;27.40;18.50;;;8.60;68.40;;;;;;5115548;27;20210;-87
2023/05/17 06:28:13;;;;;;;22.77;18.33;;;8.60;68.00;;;;;;5115865;28;20257;-86
2023/05/17 06:30:39;;;;;;;26.67;18.40;;;8.60;68.40;;;;;;5116604;28;20194;-87
2023/05/17 06:33:05;;;;;;;26.20;18.97;;;8.70;67.90;;;;;;5115825;28;20193;-86
2023/05/17 06:35:30;;;;;;;22.17;19.83;;;8.70;67.70;;;;;;5115671;28;20206;-86
2023/05/17 06:37:56;;;;;;;25.07;18.43;;;8.80;68.20;;;;;;5114528;28;20178;-87
2023/05/17 06:40:21;;;;;;;25.80;20.67;;;8.80;69.20;;;;;;5115427;28;20337;-87
2023/05/17 06:42:47;;;;;;;27.97;21.47;;;8.80;68.70;;;;;;5114211;28;20699;-87
2023/05/17 06:45:12;;;;;;;31.70;22.00;;;8.90;67.90;;;;;;5114130;28;20174;-88
2023/05/17 06:47:38;;;;;;;27.20;21.43;;;8.90;67.10;;;;;;5114255;28;20191;-88
2023/05/17 06:50:04;;;;;;;29.20;21.37;;;8.90;66.20;;;;;;5114031;28;20306;-88
2023/05/17 06:52:30;;;;;;;24.23;21.10;;;8.90;66.80;;;;;;5114321;28;20201;-87
2023/05/17 06:54:55;;;;;;;23.47;20.90;;;8.90;67.50;;;;;;5113995;28;20170;-88
2023/05/17 06:57:21;;;;;;;25.17;20.87;;;8.80;66.00;;;;;;5113932;28;20182;-88
2023/05/17 06:59:47;;;;;;;22.60;20.33;;;8.80;66.80;;;;;;5115166;28;20170;-88
2023/05/17 07:02:12;;;;;;;25.53;21.53;;;8.90;66.80;;;;;;5113826;28;20285;-87
2023/05/17 07:04:38;;;;;;;23.40;20.70;;;8.90;66.70;;;;;;5114368;28;20285;-88
2023/05/17 07:07:03;;;;;;;28.30;20.23;;;8.90;67.50;;;;;;5113743;28;20278;-88
2023/05/17 07:09:29;;;;;;;24.70;19.73;;;9.00;68.20;;;;;;5114001;28;20173;-87
2023/05/17 07:11:55;;;;;;;31.57;21.93;;;9.10;68.50;;;;;;5113550;28;20614;-87
2023/05/17 07:14:20;;;;;;;28.07;21.40;;;9.20;68.50;;;;;;5113704;28;20178;-88
2023/05/17 07:16:48;;;;;;;25.67;20.73;;;9.20;67.20;;;;;;5113599;28;20228;-87
2023/05/17 07:19:13;;;;;;;22.80;20.47;;;9.20;67.50;;;;;;5115182;28;20661;-87
2023/05/17 07:21:39;;;;;;;23.07;11.83;;;9.40;68.40;;;;;;5113496;28;20232;-87
2023/05/17 07:24:05;;;;;;;19.57;11.47;;;9.50;68.30;;;;;;5113554;28;20170;-88
2023/05/17 07:26:30;;;;;;;17.03;12.30;;;9.50;68.50;;;;;;5113206;28;20327;-88
2023/05/17 07:28:56;;;;;;;18.93;12.97;;;9.70;68.00;;;;;;5114506;28;20174;-88
2023/05/17 07:31:21;;;;;;;19.33;13.03;;;9.70;67.40;;;;;;5114437;28;20190;-87
2023/05/17 07:33:47;;;;;;;16.57;10.70;;;9.80;67.70;;;;;;5113539;28;20174;-87
2023/05/17 07:36:12;;;;;;;14.63;11.60;;;9.90;68.50;;;;;;5114341;28;20170;-86
2023/05/17 07:38:38;;;;;;;14.03;12.40;;;9.80;67.40;;;;;;5113347;28;20186;-87
2023/05/17 07:41:08;;;;;;;21.33;12.97;;;9.60;66.80;;;;;;5113043;28;20197;-89
2023/05/17 07:43:36;;;;;;;25.43;12.47;;;9.40;67.30;;;;;;5113029;28;20266;-89
2023/05/17 07:46:03;;;;;;;22.00;13.03;;;9.50;68.50;;;;;;5112840;28;20208;-89
2023/05/17 07:48:28;;;;;;;18.10;11.53;;;9.50;67.90;;;;;;5112909;28;20170;-89
2023/05/17 07:50:54;;;;;;;24.00;12.67;;;9.50;68.40;;;;;;5114366;28;20553;-89
2023/05/17 07:53:20;;;;;;;22.23;19.63;;;9.70;68.50;;;;;;5114125;28;20177;-87
2023/05/17 07:55:45;;;;;;;24.10;21.30;;;9.70;67.70;;;;;;5113313;28;20178;-86
2023/05/17 07:58:11;;;;;;;24.93;20.00;;;9.90;67.50;;;;;;5112860;28;20678;-88
2023/05/17 08:00:37;;;;;;;25.73;21.47;;;10.00;68.40;;;;;;5114417;28;20201;-85
2023/05/17 08:03:02;;;;;;;34.73;22.37;;;10.10;67.90;;;;;;5113089;28;20210;-85
2023/05/17 08:05:28;;;;;;;25.53;22.77;;;10.00;65.80;;;;;;5112814;28;20209;-87
2023/05/17 08:07:54;;;;;;;24.97;22.43;;;9.90;65.60;;;;;;5112618;28;20173;-86
2023/05/17 08:10:20;;;;;;;51.57;24.00;;;9.80;66.20;;;;;;5113107;28;20230;-85
2023/05/17 08:12:45;;;;;;;36.33;21.50;;;10.00;66.80;;;;;;5114669;28;20175;-85
2023/05/17 08:15:11;;;;;;;27.40;21.33;;;10.10;66.70;;;;;;5112777;28;20178;-86
2023/05/17 08:17:36;;;;;;;27.87;22.07;;;10.30;66.70;;;;;;5112873;28;20162;-85
2023/05/17 08:20:04;;;;;;;30.13;21.77;;;10.30;65.80;;;;;;5113161;28;20181;-86
2023/05/17 08:22:30;;;;;;;28.47;22.40;;;10.30;64.80;;;;;;5113812;28;20186;-86
2023/05/17 08:24:56;;;;;;;28.43;21.63;;;10.30;63.40;;;;;;5114309;28;20177;-85
2023/05/17 08:27:21;;;;;;;25.83;23.17;;;10.40;63.50;;;;;;5115385;28;20197;-85
2023/05/17 08:29:47;;;;;;;24.13;21.53;;;10.30;63.30;;;;;;5113475;28;20174;-86
2023/05/17 08:32:12;;;;;;;24.37;20.13;;;10.10;64.70;;;;;;5114072;28;20531;-87
2023/05/17 08:34:38;;;;;;;28.07;21.27;;;10.10;65.80;;;;;;5113939;28;20178;-87
2023/05/17 08:37:03;;;;;;;29.73;22.67;;;10.20;65.90;;;;;;5113398;28;20227;-85
2023/05/17 08:39:30;;;;;;;26.87;21.20;;;10.00;66.90;;;;;;5113466;28;20177;-86
2023/05/17 08:41:58;;;;;;;27.07;23.40;;;9.70;68.40;;;;;;5113101;28;20201;-85
2023/05/17 08:44:26;;;;;;;25.00;17.37;;;9.80;69.40;;;;;;5114801;28;20544;-84
2023/05/17 08:46:52;;;;;;;26.87;16.33;;;9.70;69.60;;;;;;5115854;28;20297;-85
2023/05/17 08:49:24;;;;;;;22.97;16.20;;;10.00;69.70;;;;;;5117215;28;20311;-86
2023/05/17 08:51:52;;;;;;;22.13;18.37;;;10.30;69.80;;;;;;5117365;28;20201;-85
2023/05/17 08:54:18;;;;;;;21.90;19.53;;;10.50;68.90;;;;;;5117963;28;20174;-83
2023/05/17 08:56:44;;;;;;;27.53;18.70;;;10.50;68.40;;;;;;5119150;28;20184;-86
2023/05/17 08:59:10;;;;;;;27.80;18.90;;;10.80;69.60;;;;;;5117507;28;20185;-86
2023/05/17 09:01:40;;;;;;;26.13;19.23;;;11.20;68.70;;;;;;5119177;28;20276;-85
2023/05/17 09:04:08;;;;;;;25.60;18.37;;;11.30;66.80;;;;;;5119541;28;20185;-86
2023/05/17 09:06:35;;;;;;;25.13;19.40;;;11.50;64.90;;;;;;5119338;28;20193;-85
2023/05/17 09:09:00;;;;;;;25.73;19.93;;;11.30;62.60;;;;;;5118176;28;20180;-86
2023/05/17 09:11:33;;;;;;;26.97;20.17;;;11.30;63.10;;;;;;5117319;28;20285;-86
2023/05/17 09:14:01;;;;;;;29.10;19.67;;;11.00;63.70;;;;;;5119165;28;20173;-88
2023/05/17 09:16:32;;;;;;;27.60;20.80;;;11.10;63.80;;;;;;5118138;28;20177;-87
2023/05/17 09:18:58;;;;;;;23.17;20.67;;;11.10;62.60;;;;;;5116132;28;20202;-86
2023/05/17 09:21:25;;;;;;;22.37;20.17;;;11.00;62.30;;;;;;5117702;28;20739;-87
2023/05/17 09:23:51;;;;;;;27.37;21.80;;;10.90;61.70;;;;;;5116484;28;20627;-86
2023/05/17 09:26:17;;;;;;;29.30;20.73;;;10.80;60.40;;;;;;5115739;28;20300;-87
2023/05/17 09:28:43;;;;;;;25.83;21.03;;;10.90;60.90;;;;;;5116841;28;20197;-87
2023/05/17 09:31:13;;;;;;;28.00;22.07;;;11.10;61.70;;;;;;5117191;28;20209;-86
2023/05/17 09:33:46;;;;;;;25.07;22.37;;;11.40;61.20;;;;;;5115722;28;20163;-87
2023/05/17 09:36:22;;;;;;;26.50;20.57;;;11.80;59.70;;;;;;5116898;28;20173;-87
2023/05/17 09:39:10;;;;;;;21.50;19.40;;;11.30;59.70;;;;;;5115664;28;20255;-87
2023/05/17 09:41:48;;;;;;;22.40;20.03;;;11.00;62.10;;;;;;5115630;28;20574;-85
2023/05/17 09:44:14;;;;;;;28.93;20.90;;;11.10;61.30;;;;;;5116800;28;20158;-87
2023/05/17 09:46:43;;;;;;;22.97;20.43;;;11.10;63.10;;;;;;5115305;28;20698;-86
2023/05/17 09:49:08;;;;;;;23.30;20.33;;;11.20;63.70;;;;;;5115292;28;20549;-87
2023/05/17 09:51:42;;;;;;;24.97;20.00;;;11.80;63.90;;;;;;5115504;28;20194;-87
2023/05/17 09:54:12;;;;;;;21.00;18.80;;;11.70;62.90;;;;;;5116847;28;20182;-86
2023/05/17 09:56:37;;;;;;;22.30;19.67;;;11.90;63.60;;;;;;5117064;28;20254;-87
2023/05/17 09:59:10;;;;;;;24.47;19.67;;;11.90;63.70;;;;;;5115148;28;20186;-87
2023/05/17 10:01:40;;;;;;;25.33;20.23;;;12.40;63.10;;;;;;5115346;28;20198;-86
2023/05/17 10:04:08;;;;;;;25.63;21.47;;;12.40;62.30;;;;;;5117696;28;20169;-87
2023/05/17 10:06:37;;;;;;;24.60;20.40;;;12.70;63.90;;;;;;5116821;28;20197;-87
2023/05/17 10:09:04;;;;;;;22.17;19.90;;;12.00;60.60;;;;;;5117266;28;20174;-88
2023/05/17 10:11:33;;;;;;;22.03;18.57;;;11.50;63.70;;;;;;5116659;28;20202;-85
2023/05/17 10:14:22;;;;;;;21.93;19.63;;;12.20;62.70;;;;;;5116159;28;20178;-86
2023/05/17 10:16:48;;;;;;;23.97;18.80;;;12.40;60.80;;;;;;5117636;28;20525;-85
2023/05/17 10:19:15;;;;;;;21.50;19.53;;;12.00;61.70;;;;;;5118411;28;20170;-85
2023/05/17 10:21:42;;;;;;;22.10;19.93;;;12.00;62.30;;;;;;5115409;28;20620;-85
2023/05/17 10:24:10;;;;;;;26.10;18.80;;;11.80;61.90;;;;;;5116191;28;20249;-86
2023/05/17 10:26:35;;;;;;;24.10;21.30;;;11.80;64.00;;;;;;5117750;28;20610;-85
2023/05/17 10:29:03;;;;;;;22.07;19.97;;;11.90;63.50;;;;;;5116704;28;20260;-85
2023/05/17 10:31:30;;;;;;;21.27;19.37;;;11.40;65.90;;;;;;5116441;28;20347;-84
2023/05/17 10:33:56;;;;;;;26.67;20.00;;;11.20;66.70;;;;;;5118381;28;20166;-84
2023/05/17 10:36:23;;;;;;;25.33;20.87;;;11.40;65.20;;;;;;5115997;28;20178;-85
2023/05/17 10:38:50;;;;;;;21.33;19.17;;;11.50;65.20;;;;;;5117324;28;20181;-85
2023/05/17 10:41:17;;;;;;;22.93;20.60;;;11.70;64.90;;;;;;5117515;28;20243;-85
2023/05/17 10:43:44;;;;;;;22.87;20.83;;;11.50;64.00;;;;;;5116963;28;20189;-85
2023/05/17 10:46:20;;;;;;;23.33;19.77;;;11.70;64.20;;;;;;5117198;28;20220;-86
2023/05/17 10:48:49;;;;;;;21.43;19.40;;;11.60;65.60;;;;;;5116553;28;20181;-85
2023/05/17 10:51:31;;;;;;;20.57;18.87;;;12.20;64.30;;;;;;5114793;28;20605;-85
2023/05/17 10:54:17;;;;;;;21.53;19.40;;;12.10;61.50;;;;;;5116692;28;20245;-84
2023/05/17 10:56:51;;;;;;;22.27;19.97;;;12.60;62.40;;;;;;5115941;28;20185;-86
2023/05/17 10:59:35;;;;;;;21.70;19.67;;;13.10;61.10;;;;;;5114966;28;20227;-85
2023/05/17 11:02:08;;;;;;;21.23;19.40;;;13.20;60.90;;;;;;5115652;28;20562;-85
2023/05/17 11:04:42;;;;;;;22.40;20.30;;;12.80;59.90;;;;;;5114746;28;20528;-86
2023/05/17 11:07:16;;;;;;;23.60;21.23;;;12.70;61.90;;;;;;5115683;28;20190;-86
2023/05/17 11:10:09;;;;;;;24.70;20.60;;;12.60;63.00;;;;;;5114468;28;20158;-86
2023/05/17 11:12:42;;;;;;;30.17;21.90;;;12.50;64.00;;;;;;5115341;28;20197;-86
2023/05/17 11:15:17;;;;;;;24.10;21.00;;;12.30;63.80;;;;;;5115426;28;20219;-86
2023/05/17 11:17:42;;;;;;;25.17;20.03;;;12.10;65.10;;;;;;5115215;28;20176;-85
2023/05/17 11:20:15;;;;;;;23.00;20.57;;;12.30;65.50;;;;;;5114672;28;20589;-86
2023/05/17 11:22:58;;;;;;;23.30;20.87;;;12.00;63.70;;;;;;5115545;28;20217;-86
2023/05/17 11:25:27;;;;;;;23.00;21.00;;;11.70;65.00;;;;;;5114247;28;20186;-87
2023/05/17 11:27:53;;;;;;;23.43;21.17;;;11.50;65.20;;;;;;5115057;28;20182;-87
2023/05/17 11:30:25;;;;;;;22.93;20.73;;;11.50;66.50;;;;;;5115610;28;20263;-86
2023/05/17 11:33:11;;;;;;;25.40;21.50;;;12.30;66.80;;;;;;5115197;28;20587;-87
2023/05/17 11:35:38;;;;;;;21.53;19.77;;;12.70;64.00;;;;;;5114571;28;20186;-88
2023/05/17 11:38:36;;;;;;;23.47;19.03;;;12.30;63.20;;;;;;5114887;28;20178;-88
2023/05/17 11:41:17;;;;;;;21.47;19.23;;;11.80;64.30;;;;;;5092319;28;20206;-87
2023/05/17 11:43:49;;;;;;;21.43;19.27;;;11.80;64.90;;;;;;5113810;28;20162;-87
2023/05/17 11:46:20;;;;;;;22.07;19.87;;;12.20;64.10;;;;;;5114311;28;20213;-85
2023/05/17 11:48:46;;;;;;;22.43;20.20;;;11.50;63.70;;;;;;5115408;28;20249;-87
2023/05/17 11:51:15;;;;;;;21.90;19.73;;;12.20;65.60;;;;;;5113494;28;20760;-86
2023/05/17 11:53:42;;;;;;;21.00;18.90;;;12.20;64.30;;;;;;5113637;28;20170;-86
2023/05/17 11:56:08;;;;;;;21.47;19.17;;;12.40;61.90;;;;;;5113654;28;20649;-86
2023/05/17 11:58:34;;;;;;;22.27;20.03;;;12.10;63.70;;;;;;5114768;28;20636;-87
2023/05/17 12:01:00;;;;;;;24.03;19.73;;;12.00;62.70;;;;;;5112738;28;20196;-87
2023/05/17 12:03:30;;;;;;;17.50;12.37;;;11.80;64.20;;;;;;5112921;28;20185;-87
2023/05/17 12:06:08;;;;;;;17.30;11.97;;;11.50;63.50;;;;;;5112981;28;20220;-87
2023/05/17 12:08:37;;;;;;;15.90;11.97;;;11.60;63.60;;;;;;5112892;28;20166;-88
2023/05/17 12:11:03;;;;;;;13.70;11.77;;;11.70;62.40;;;;;;5112764;28;20197;-88
2023/05/17 12:13:30;;;;;;;17.67;11.33;;;11.80;62.20;;;;;;5113330;28;20174;-87
2023/05/17 12:16:00;;;;;;;12.20;11.00;;;11.90;63.80;;;;;;5114414;28;20166;-87
2023/05/17 12:18:37;;;;;;;13.87;10.97;;;12.20;64.20;;;;;;5114915;28;20161;-86
2023/05/17 12:21:03;;;;;;;10.93;10.00;;;12.60;62.40;;;;;;5112996;28;20209;-87
2023/05/17 12:23:36;;;;;;;12.27;11.00;;;13.10;59.70;;;;;;5114428;28;20198;-87
2023/05/17 12:26:03;;;;;;;12.50;11.30;;;13.30;56.80;;;;;;5112512;28;20252;-87
2023/05/17 12:28:29;;;;;;;20.80;18.90;;;13.20;58.00;;;;;;5112482;28;20526;-87
2023/05/17 12:31:01;;;;;;;21.73;19.50;;;12.90;60.20;;;;;;5112460;28;20193;-87
2023/05/17 12:33:34;;;;;;;22.37;19.50;;;12.60;60.50;;;;;;5113947;28;20150;-87
2023/05/17 12:36:02;;;;;;;21.70;18.30;;;12.50;60.70;;;;;;5113668;28;20165;-88
2023/05/17 12:38:31;;;;;;;26.53;19.70;;;12.70;60.60;;;;;;5112491;28;20178;-87